sensor_id;sensor_type;location;lat;lon;timestamp;temperature;humidity
59146;DHT22;44928;53.074;6.646;2023-04-25T00:01:29;7.40;99.90
59146;DHT22;44928;53.074;6.646;2023-04-25T00:03:55;7.40;99.90
59146;DHT22;44928;53.074;6.646;2023-04-25T00:06:21;7.40;99.90
59146;DHT22;44928;53.074;6.646;2023-04-25T00:08:47;7.40;99.90
59146;DHT22;44928;53.074;6.646;2023-04-25T00:11:13;7.40;99.90
59146;DHT22;44928;53.074;6.646;2023-04-25T00:13:39;7.30;99.90
59146;DHT22;44928;53.074;6.646;2023-04-25T00:16:07;7.40;99.90
59146;DHT22;44928;53.074;6.646;2023-04-25T00:18:33;7.40;99.90
59146;DHT22;44928;53.074;6.646;2023-04-25T00:20:59;7.40;99.90
59146;DHT22;44928;53.074;6.646;2023-04-25T00:23:25;7.30;99.90
59146;DHT22;44928;53.074;6.646;2023-04-25T00:25:51;7.30;99.90
59146;DHT22;44928;53.074;6.646;2023-04-25T00:28:17;7.40;99.90
59146;DHT22;44928;53.074;6.646;2023-04-25T00:30:43;7.40;99.90
59146;DHT22;44928;53.074;6.646;2023-04-25T00:33:09;7.30;99.90
59146;DHT22;44928;53.074;6.646;2023-04-25T00:35:35;7.40;99.90
59146;DHT22;44928;53.074;6.646;2023-04-25T00:38:01;7.40;99.90
59146;DHT22;44928;53.074;6.646;2023-04-25T00:40:27;7.40;99.90
59146;DHT22;44928;53.074;6.646;2023-04-25T00:42:53;7.40;99.90
59146;DHT22;44928;53.074;6.646;2023-04-25T00:45:19;7.40;99.90
59146;DHT22;44928;53.074;6.646;2023-04-25T00:47:46;7.30;99.90
59146;DHT22;44928;53.074;6.646;2023-04-25T00:50:13;7.30;99.90
59146;DHT22;44928;53.074;6.646;2023-04-25T00:52:41;7.30;99.90
59146;DHT22;44928;53.074;6.646;2023-04-25T00:55:09;7.30;99.90
59146;DHT22;44928;53.074;6.646;2023-04-25T00:57:35;7.20;99.90
59146;DHT22;44928;53.074;6.646;2023-04-25T01:00:03;7.20;99.90
59146;DHT22;44928;53.074;6.646;2023-04-25T01:02:32;7.20;99.90
59146;DHT22;44928;53.074;6.646;2023-04-25T01:04:58;7.20;99.90
59146;DHT22;44928;53.074;6.646;2023-04-25T01:07:24;7.10;99.90
59146;DHT22;44928;53.074;6.646;2023-04-25T01:09:51;7.20;99.90
59146;DHT22;44928;53.074;6.646;2023-04-25T01:12:17;7.10;99.90
59146;DHT22;44928;53.074;6.646;2023-04-25T01:14:44;7.10;99.90
59146;DHT22;44928;53.074;6.646;2023-04-25T01:17:11;7.10;99.90
59146;DHT22;44928;53.074;6.646;2023-04-25T01:19:37;7.10;99.90
59146;DHT22;44928;53.074;6.646;2023-04-25T01:22:03;7.10;99.90
59146;DHT22;44928;53.074;6.646;2023-04-25T01:24:31;7.00;99.90
59146;DHT22;44928;53.074;6.646;2023-04-25T01:26:58;7.00;99.90
59146;DHT22;44928;53.074;6.646;2023-04-25T01:29:24;7.00;99.90
59146;DHT22;44928;53.074;6.646;2023-04-25T01:31:51;7.00;99.90
59146;DHT22;44928;53.074;6.646;2023-04-25T01:34:18;7.00;99.90
59146;DHT22;44928;53.074;6.646;2023-04-25T01:36:43;6.90;99.90
59146;DHT22;44928;53.074;6.646;2023-04-25T01:39:09;6.90;99.90
59146;DHT22;44928;53.074;6.646;2023-04-25T01:41:36;6.90;99.90
59146;DHT22;44928;53.074;6.646;2023-04-25T01:44:02;6.90;99.90
59146;DHT22;44928;53.074;6.646;2023-04-25T01:46:29;6.90;99.90
59146;DHT22;44928;53.074;6.646;2023-04-25T01:48:54;6.90;99.90
59146;DHT22;44928;53.074;6.646;2023-04-25T01:51:20;6.90;99.90
59146;DHT22;44928;53.074;6.646;2023-04-25T01:53:46;6.90;99.90
59146;DHT22;44928;53.074;6.646;2023-04-25T01:56:12;6.90;99.90
59146;DHT22;44928;53.074;6.646;2023-04-25T01:58:38;6.90;99.90
59146;DHT22;44928;53.074;6.646;2023-04-25T02:01:04;6.80;99.90
59146;DHT22;44928;53.074;6.646;2023-04-25T02:03:31;6.80;99.90
59146;DHT22;44928;53.074;6.646;2023-04-25T02:05:57;6.80;99.90
59146;DHT22;44928;53.074;6.646;2023-04-25T02:08:23;6.80;99.90
59146;DHT22;44928;53.074;6.646;2023-04-25T02:10:48;6.80;99.90
59146;DHT22;44928;53.074;6.646;2023-04-25T02:13:14;6.80;99.90
59146;DHT22;44928;53.074;6.646;2023-04-25T02:15:40;6.80;99.90
59146;DHT22;44928;53.074;6.646;2023-04-25T02:18:06;6.80;99.90
59146;DHT22;44928;53.074;6.646;2023-04-25T02:20:32;6.80;99.90
59146;DHT22;44928;53.074;6.646;2023-04-25T02:22:58;6.80;99.90
59146;DHT22;44928;53.074;6.646;2023-04-25T02:25:25;6.80;99.90
59146;DHT22;44928;53.074;6.646;2023-04-25T02:27:50;6.70;99.90
59146;DHT22;44928;53.074;6.646;2023-04-25T02:30:17;6.70;99.90
59146;DHT22;44928;53.074;6.646;2023-04-25T02:32:43;6.70;99.90
59146;DHT22;44928;53.074;6.646;2023-04-25T02:35:09;6.70;99.90
59146;DHT22;44928;53.074;6.646;2023-04-25T02:37:36;6.70;99.90
59146;DHT22;44928;53.074;6.646;2023-04-25T02:40:02;6.70;99.90
59146;DHT22;44928;53.074;6.646;2023-04-25T02:42:29;6.70;99.90
59146;DHT22;44928;53.074;6.646;2023-04-25T02:44:55;6.60;99.90
59146;DHT22;44928;53.074;6.646;2023-04-25T02:47:21;6.60;99.90
59146;DHT22;44928;53.074;6.646;2023-04-25T02:49:47;6.60;99.90
59146;DHT22;44928;53.074;6.646;2023-04-25T02:52:13;6.60;99.90
59146;DHT22;44928;53.074;6.646;2023-04-25T02:54:40;6.60;99.90
59146;DHT22;44928;53.074;6.646;2023-04-25T02:57:06;6.60;99.90
59146;DHT22;44928;53.074;6.646;2023-04-25T02:59:32;6.60;99.90
59146;DHT22;44928;53.074;6.646;2023-04-25T03:01:58;6.60;99.90
59146;DHT22;44928;53.074;6.646;2023-04-25T03:04:24;6.60;99.90
59146;DHT22;44928;53.074;6.646;2023-04-25T03:06:50;6.60;99.90
59146;DHT22;44928;53.074;6.646;2023-04-25T03:09:16;6.60;99.90
59146;DHT22;44928;53.074;6.646;2023-04-25T03:11:43;6.60;99.90
59146;DHT22;44928;53.074;6.646;2023-04-25T03:14:09;6.50;99.90
59146;DHT22;44928;53.074;6.646;2023-04-25T03:16:35;6.50;99.90
59146;DHT22;44928;53.074;6.646;2023-04-25T03:19:02;6.50;99.90
59146;DHT22;44928;53.074;6.646;2023-04-25T03:21:28;6.60;99.90
59146;DHT22;44928;53.074;6.646;2023-04-25T03:23:54;6.50;99.90
59146;DHT22;44928;53.074;6.646;2023-04-25T03:26:20;6.50;99.90
59146;DHT22;44928;53.074;6.646;2023-04-25T03:28:46;6.50;99.90
59146;DHT22;44928;53.074;6.646;2023-04-25T03:31:11;6.50;99.90
59146;DHT22;44928;53.074;6.646;2023-04-25T03:33:37;6.50;99.90
59146;DHT22;44928;53.074;6.646;2023-04-25T03:36:03;6.50;99.90
59146;DHT22;44928;53.074;6.646;2023-04-25T03:38:29;6.50;99.90
59146;DHT22;44928;53.074;6.646;2023-04-25T03:40:55;6.50;99.90
59146;DHT22;44928;53.074;6.646;2023-04-25T03:43:21;6.50;99.90
59146;DHT22;44928;53.074;6.646;2023-04-25T03:45:47;6.50;99.90
59146;DHT22;44928;53.074;6.646;2023-04-25T03:48:13;6.50;99.90
59146;DHT22;44928;53.074;6.646;2023-04-25T03:50:39;6.50;99.90
59146;DHT22;44928;53.074;6.646;2023-04-25T03:53:04;6.50;99.90
59146;DHT22;44928;53.074;6.646;2023-04-25T03:55:30;6.40;99.90
59146;DHT22;44928;53.074;6.646;2023-04-25T03:57:57;6.40;99.90
59146;DHT22;44928;53.074;6.646;2023-04-25T04:00:24;6.40;99.90
59146;DHT22;44928;53.074;6.646;2023-04-25T04:02:50;6.40;99.90
59146;DHT22;44928;53.074;6.646;2023-04-25T04:05:16;6.40;99.90
59146;DHT22;44928;53.074;6.646;2023-04-25T04:07:42;6.30;99.90
59146;DHT22;44928;53.074;6.646;2023-04-25T04:10:10;6.30;99.90
59146;DHT22;44928;53.074;6.646;2023-04-25T04:12:37;6.30;99.90
59146;DHT22;44928;53.074;6.646;2023-04-25T04:15:05;6.20;99.90
59146;DHT22;44928;53.074;6.646;2023-04-25T04:17:31;6.20;99.90
59146;DHT22;44928;53.074;6.646;2023-04-25T04:19:58;6.20;99.90
59146;DHT22;44928;53.074;6.646;2023-04-25T04:22:24;6.20;99.90
59146;DHT22;44928;53.074;6.646;2023-04-25T04:24:50;6.10;99.90
59146;DHT22;44928;53.074;6.646;2023-04-25T04:27:18;6.10;99.90
59146;DHT22;44928;53.074;6.646;2023-04-25T04:29:45;6.10;99.90
59146;DHT22;44928;53.074;6.646;2023-04-25T04:32:12;6.10;99.90
59146;DHT22;44928;53.074;6.646;2023-04-25T04:34:37;6.10;99.90
59146;DHT22;44928;53.074;6.646;2023-04-25T04:37:05;6.00;99.90
59146;DHT22;44928;53.074;6.646;2023-04-25T04:39:33;6.00;99.90
59146;DHT22;44928;53.074;6.646;2023-04-25T04:41:59;6.00;99.90
59146;DHT22;44928;53.074;6.646;2023-04-25T04:44:25;6.00;99.90
59146;DHT22;44928;53.074;6.646;2023-04-25T04:46:51;5.90;99.90
59146;DHT22;44928;53.074;6.646;2023-04-25T04:49:17;5.90;99.90
59146;DHT22;44928;53.074;6.646;2023-04-25T04:51:43;5.90;99.90
59146;DHT22;44928;53.074;6.646;2023-04-25T04:54:12;5.90;99.90
59146;DHT22;44928;53.074;6.646;2023-04-25T04:56:38;5.90;99.90
59146;DHT22;44928;53.074;6.646;2023-04-25T04:59:04;5.90;99.90
59146;DHT22;44928;53.074;6.646;2023-04-25T05:01:30;5.90;99.90
59146;DHT22;44928;53.074;6.646;2023-04-25T05:03:56;5.80;99.90
59146;DHT22;44928;53.074;6.646;2023-04-25T05:06:26;5.80;99.90
59146;DHT22;44928;53.074;6.646;2023-04-25T05:08:52;5.80;99.90
59146;DHT22;44928;53.074;6.646;2023-04-25T05:11:19;5.80;99.90
59146;DHT22;44928;53.074;6.646;2023-04-25T05:13:45;5.80;99.90
59146;DHT22;44928;53.074;6.646;2023-04-25T05:16:12;5.80;99.90
59146;DHT22;44928;53.074;6.646;2023-04-25T05:18:38;5.80;99.90
59146;DHT22;44928;53.074;6.646;2023-04-25T05:21:04;5.80;99.90
59146;DHT22;44928;53.074;6.646;2023-04-25T05:23:31;5.80;99.90
59146;DHT22;44928;53.074;6.646;2023-04-25T05:25:58;5.90;99.90
59146;DHT22;44928;53.074;6.646;2023-04-25T05:28:24;5.90;99.90
59146;DHT22;44928;53.074;6.646;2023-04-25T05:30:50;5.90;99.90
59146;DHT22;44928;53.074;6.646;2023-04-25T05:33:16;5.90;99.90
59146;DHT22;44928;53.074;6.646;2023-04-25T05:35:42;5.90;99.90
59146;DHT22;44928;53.074;6.646;2023-04-25T05:38:08;5.90;99.90
59146;DHT22;44928;53.074;6.646;2023-04-25T05:40:34;5.90;99.90
59146;DHT22;44928;53.074;6.646;2023-04-25T05:43:00;5.90;99.90
59146;DHT22;44928;53.074;6.646;2023-04-25T05:45:25;5.90;99.90
59146;DHT22;44928;53.074;6.646;2023-04-25T05:47:51;5.90;99.90
59146;DHT22;44928;53.074;6.646;2023-04-25T05:50:17;5.90;99.90
59146;DHT22;44928;53.074;6.646;2023-04-25T05:52:43;5.90;99.90
59146;DHT22;44928;53.074;6.646;2023-04-25T05:55:09;5.80;99.90
59146;DHT22;44928;53.074;6.646;2023-04-25T05:57:35;5.90;99.90
59146;DHT22;44928;53.074;6.646;2023-04-25T06:00:00;5.90;99.90
59146;DHT22;44928;53.074;6.646;2023-04-25T06:02:26;6.00;99.90
59146;DHT22;44928;53.074;6.646;2023-04-25T06:04:52;6.00;99.90
59146;DHT22;44928;53.074;6.646;2023-04-25T06:07:21;6.10;99.90
59146;DHT22;44928;53.074;6.646;2023-04-25T06:09:47;6.10;99.90
59146;DHT22;44928;53.074;6.646;2023-04-25T06:12:13;6.10;99.90
59146;DHT22;44928;53.074;6.646;2023-04-25T06:14:38;6.20;99.90
59146;DHT22;44928;53.074;6.646;2023-04-25T06:17:04;6.20;99.90
59146;DHT22;44928;53.074;6.646;2023-04-25T06:19:34;6.20;99.90
59146;DHT22;44928;53.074;6.646;2023-04-25T06:22:01;6.30;99.90
59146;DHT22;44928;53.074;6.646;2023-04-25T06:24:27;6.30;99.90
59146;DHT22;44928;53.074;6.646;2023-04-25T06:26:53;6.40;99.90
59146;DHT22;44928;53.074;6.646;2023-04-25T06:29:19;6.40;99.90
59146;DHT22;44928;53.074;6.646;2023-04-25T06:31:45;6.40;99.90
59146;DHT22;44928;53.074;6.646;2023-04-25T06:34:10;6.50;99.90
59146;DHT22;44928;53.074;6.646;2023-04-25T06:36:36;6.50;99.90
59146;DHT22;44928;53.074;6.646;2023-04-25T06:39:02;6.70;99.90
59146;DHT22;44928;53.074;6.646;2023-04-25T06:41:28;6.80;99.90
59146;DHT22;44928;53.074;6.646;2023-04-25T06:43:54;6.90;99.90
59146;DHT22;44928;53.074;6.646;2023-04-25T06:46:20;6.90;99.90
59146;DHT22;44928;53.074;6.646;2023-04-25T06:48:45;7.10;99.90
59146;DHT22;44928;53.074;6.646;2023-04-25T06:51:12;7.20;99.90
59146;DHT22;44928;53.074;6.646;2023-04-25T06:53:39;7.20;99.90
59146;DHT22;44928;53.074;6.646;2023-04-25T06:56:05;7.30;99.90
59146;DHT22;44928;53.074;6.646;2023-04-25T06:58:31;7.40;99.90
59146;DHT22;44928;53.074;6.646;2023-04-25T07:00:57;7.40;99.90
59146;DHT22;44928;53.074;6.646;2023-04-25T07:03:23;7.50;99.90
59146;DHT22;44928;53.074;6.646;2023-04-25T07:05:50;7.40;99.90
59146;DHT22;44928;53.074;6.646;2023-04-25T07:08:16;7.40;99.90
59146;DHT22;44928;53.074;6.646;2023-04-25T07:10:42;7.30;99.90
59146;DHT22;44928;53.074;6.646;2023-04-25T07:13:08;7.30;99.90
59146;DHT22;44928;53.074;6.646;2023-04-25T07:15:34;7.30;99.90
59146;DHT22;44928;53.074;6.646;2023-04-25T07:18:00;7.30;99.90
59146;DHT22;44928;53.074;6.646;2023-04-25T07:20:25;7.30;99.90
59146;DHT22;44928;53.074;6.646;2023-04-25T07:22:53;7.30;99.90
59146;DHT22;44928;53.074;6.646;2023-04-25T07:25:19;7.20;99.90
59146;DHT22;44928;53.074;6.646;2023-04-25T07:27:45;7.20;99.90
59146;DHT22;44928;53.074;6.646;2023-04-25T07:30:11;7.20;99.90
59146;DHT22;44928;53.074;6.646;2023-04-25T07:32:38;7.30;99.90
59146;DHT22;44928;53.074;6.646;2023-04-25T07:35:05;7.40;99.90
59146;DHT22;44928;53.074;6.646;2023-04-25T07:37:35;7.40;99.90
59146;DHT22;44928;53.074;6.646;2023-04-25T07:40:02;7.40;99.90
59146;DHT22;44928;53.074;6.646;2023-04-25T07:42:30;7.50;99.90
59146;DHT22;44928;53.074;6.646;2023-04-25T07:44:55;7.60;99.90
59146;DHT22;44928;53.074;6.646;2023-04-25T07:47:21;7.60;99.90
59146;DHT22;44928;53.074;6.646;2023-04-25T07:49:47;7.80;99.90
59146;DHT22;44928;53.074;6.646;2023-04-25T07:52:13;7.80;99.90
59146;DHT22;44928;53.074;6.646;2023-04-25T07:54:39;7.80;99.90
59146;DHT22;44928;53.074;6.646;2023-04-25T07:57:04;7.70;99.90
59146;DHT22;44928;53.074;6.646;2023-04-25T07:59:32;7.70;99.90
59146;DHT22;44928;53.074;6.646;2023-04-25T08:01:58;7.70;99.90
59146;DHT22;44928;53.074;6.646;2023-04-25T08:04:24;7.80;99.90
59146;DHT22;44928;53.074;6.646;2023-04-25T08:06:51;7.80;99.90
59146;DHT22;44928;53.074;6.646;2023-04-25T08:09:18;7.80;99.90
59146;DHT22;44928;53.074;6.646;2023-04-25T08:11:43;7.90;99.90
59146;DHT22;44928;53.074;6.646;2023-04-25T08:14:09;7.90;99.90
59146;DHT22;44928;53.074;6.646;2023-04-25T08:16:35;7.90;99.90
59146;DHT22;44928;53.074;6.646;2023-04-25T08:19:01;8.00;99.90
59146;DHT22;44928;53.074;6.646;2023-04-25T08:21:27;8.00;99.90
59146;DHT22;44928;53.074;6.646;2023-04-25T08:23:53;7.90;99.90
59146;DHT22;44928;53.074;6.646;2023-04-25T08:26:18;7.90;99.90
59146;DHT22;44928;53.074;6.646;2023-04-25T08:28:44;7.90;99.90
59146;DHT22;44928;53.074;6.646;2023-04-25T08:31:10;8.00;99.90
59146;DHT22;44928;53.074;6.646;2023-04-25T08:33:36;8.00;99.90
59146;DHT22;44928;53.074;6.646;2023-04-25T08:36:02;8.10;99.90
59146;DHT22;44928;53.074;6.646;2023-04-25T08:38:28;8.00;99.90
59146;DHT22;44928;53.074;6.646;2023-04-25T08:40:54;8.00;99.90
59146;DHT22;44928;53.074;6.646;2023-04-25T08:43:23;7.90;99.90
59146;DHT22;44928;53.074;6.646;2023-04-25T08:45:52;7.50;99.90
59146;DHT22;44928;53.074;6.646;2023-04-25T08:48:19;7.30;99.90
59146;DHT22;44928;53.074;6.646;2023-04-25T08:50:51;7.20;99.90
59146;DHT22;44928;53.074;6.646;2023-04-25T08:53:20;7.20;99.90
59146;DHT22;44928;53.074;6.646;2023-04-25T08:55:48;7.10;99.90
59146;DHT22;44928;53.074;6.646;2023-04-25T08:58:15;7.20;99.90
59146;DHT22;44928;53.074;6.646;2023-04-25T09:00:41;7.30;99.90
59146;DHT22;44928;53.074;6.646;2023-04-25T09:03:07;7.40;99.90
59146;DHT22;44928;53.074;6.646;2023-04-25T09:05:34;7.60;99.90
59146;DHT22;44928;53.074;6.646;2023-04-25T09:08:01;7.70;99.90
59146;DHT22;44928;53.074;6.646;2023-04-25T09:10:27;7.70;99.90
59146;DHT22;44928;53.074;6.646;2023-04-25T09:13:10;7.70;99.90
59146;DHT22;44928;53.074;6.646;2023-04-25T09:18:33;7.70;99.90
59146;DHT22;44928;53.074;6.646;2023-04-25T09:21:07;7.60;99.90
59146;DHT22;44928;53.074;6.646;2023-04-25T09:23:41;7.70;99.90
59146;DHT22;44928;53.074;6.646;2023-04-25T09:26:07;7.70;99.90
59146;DHT22;44928;53.074;6.646;2023-04-25T09:28:34;7.80;99.90
59146;DHT22;44928;53.074;6.646;2023-04-25T09:31:01;7.90;99.90
59146;DHT22;44928;53.074;6.646;2023-04-25T09:33:33;8.20;99.90
59146;DHT22;44928;53.074;6.646;2023-04-25T09:36:08;8.40;99.90
59146;DHT22;44928;53.074;6.646;2023-04-25T09:38:42;8.60;99.90
59146;DHT22;44928;53.074;6.646;2023-04-25T09:41:09;8.80;99.90
59146;DHT22;44928;53.074;6.646;2023-04-25T09:43:36;9.10;99.90
59146;DHT22;44928;53.074;6.646;2023-04-25T09:46:02;9.30;99.90
59146;DHT22;44928;53.074;6.646;2023-04-25T09:48:29;9.40;99.90
59146;DHT22;44928;53.074;6.646;2023-04-25T09:51:13;9.40;99.90
59146;DHT22;44928;53.074;6.646;2023-04-25T09:53:41;9.40;99.90
59146;DHT22;44928;53.074;6.646;2023-04-25T09:56:11;9.30;99.90
59146;DHT22;44928;53.074;6.646;2023-04-25T09:58:40;9.20;99.90
59146;DHT22;44928;53.074;6.646;2023-04-25T10:01:07;8.80;99.90
59146;DHT22;44928;53.074;6.646;2023-04-25T10:03:36;8.30;99.90
59146;DHT22;44928;53.074;6.646;2023-04-25T10:06:04;7.90;99.90
59146;DHT22;44928;53.074;6.646;2023-04-25T10:08:34;7.70;99.90
59146;DHT22;44928;53.074;6.646;2023-04-25T10:11:03;7.50;99.90
59146;DHT22;44928;53.074;6.646;2023-04-25T10:13:30;7.50;99.90
59146;DHT22;44928;53.074;6.646;2023-04-25T10:16:01;7.60;99.90
59146;DHT22;44928;53.074;6.646;2023-04-25T10:18:27;7.80;99.90
59146;DHT22;44928;53.074;6.646;2023-04-25T10:20:54;8.20;99.90
59146;DHT22;44928;53.074;6.646;2023-04-25T10:23:22;8.60;99.90
59146;DHT22;44928;53.074;6.646;2023-04-25T10:25:53;9.10;99.90
59146;DHT22;44928;53.074;6.646;2023-04-25T10:28:19;9.40;99.90
59146;DHT22;44928;53.074;6.646;2023-04-25T10:31:02;9.60;99.90
59146;DHT22;44928;53.074;6.646;2023-04-25T10:33:37;9.80;99.00
59146;DHT22;44928;53.074;6.646;2023-04-25T10:36:13;10.10;99.90
59146;DHT22;44928;53.074;6.646;2023-04-25T10:38:42;10.20;97.60
59146;DHT22;44928;53.074;6.646;2023-04-25T10:41:09;10.10;92.70
59146;DHT22;44928;53.074;6.646;2023-04-25T10:46:27;9.60;99.90
59146;DHT22;44928;53.074;6.646;2023-04-25T10:48:55;9.40;99.90
59146;DHT22;44928;53.074;6.646;2023-04-25T10:51:24;9.40;99.90
59146;DHT22;44928;53.074;6.646;2023-04-25T10:56:31;9.60;99.90
59146;DHT22;44928;53.074;6.646;2023-04-25T11:01:39;9.50;99.90
59146;DHT22;44928;53.074;6.646;2023-04-25T11:04:05;9.50;99.90
59146;DHT22;44928;53.074;6.646;2023-04-25T11:09:00;9.80;99.90
59146;DHT22;44928;53.074;6.646;2023-04-25T11:11:26;9.70;99.90
59146;DHT22;44928;53.074;6.646;2023-04-25T11:13:52;9.70;99.90
59146;DHT22;44928;53.074;6.646;2023-04-25T11:16:18;9.50;99.90
59146;DHT22;44928;53.074;6.646;2023-04-25T11:18:44;9.40;99.90
59146;DHT22;44928;53.074;6.646;2023-04-25T11:21:11;9.30;99.90
59146;DHT22;44928;53.074;6.646;2023-04-25T11:23:37;9.20;99.90
59146;DHT22;44928;53.074;6.646;2023-04-25T11:26:03;9.10;99.90
59146;DHT22;44928;53.074;6.646;2023-04-25T11:28:29;9.10;99.90
59146;DHT22;44928;53.074;6.646;2023-04-25T11:30:56;9.10;99.90
59146;DHT22;44928;53.074;6.646;2023-04-25T11:33:25;9.10;99.90
59146;DHT22;44928;53.074;6.646;2023-04-25T11:35:54;9.40;99.90
59146;DHT22;44928;53.074;6.646;2023-04-25T11:38:24;9.60;99.90
59146;DHT22;44928;53.074;6.646;2023-04-25T11:40:54;9.70;99.90
59146;DHT22;44928;53.074;6.646;2023-04-25T11:43:21;9.70;98.10
59146;DHT22;44928;53.074;6.646;2023-04-25T11:45:51;10.00;98.00
59146;DHT22;44928;53.074;6.646;2023-04-25T11:48:18;10.30;99.90
59146;DHT22;44928;53.074;6.646;2023-04-25T11:50:44;10.60;93.50
59146;DHT22;44928;53.074;6.646;2023-04-25T11:53:10;10.80;95.90
59146;DHT22;44928;53.074;6.646;2023-04-25T11:55:36;11.00;97.70
59146;DHT22;44928;53.074;6.646;2023-04-25T11:58:03;11.20;95.20
59146;DHT22;44928;53.074;6.646;2023-04-25T12:00:30;11.20;93.80
59146;DHT22;44928;53.074;6.646;2023-04-25T12:02:57;11.10;86.90
59146;DHT22;44928;53.074;6.646;2023-04-25T12:05:25;11.00;74.60
59146;DHT22;44928;53.074;6.646;2023-04-25T12:07:51;10.90;72.40
59146;DHT22;44928;53.074;6.646;2023-04-25T12:10:18;10.80;71.50
59146;DHT22;44928;53.074;6.646;2023-04-25T12:12:47;10.80;74.10
59146;DHT22;44928;53.074;6.646;2023-04-25T12:15:15;10.90;76.80
59146;DHT22;44928;53.074;6.646;2023-04-25T12:17:45;11.00;80.20
59146;DHT22;44928;53.074;6.646;2023-04-25T12:20:21;11.10;82.40
59146;DHT22;44928;53.074;6.646;2023-04-25T12:22:50;11.10;84.40
59146;DHT22;44928;53.074;6.646;2023-04-25T12:25:41;11.20;87.70
59146;DHT22;44928;53.074;6.646;2023-04-25T12:28:17;11.20;80.20
59146;DHT22;44928;53.074;6.646;2023-04-25T12:31:06;11.30;87.90
59146;DHT22;44928;53.074;6.646;2023-04-25T12:33:33;11.20;90.30
59146;DHT22;44928;53.074;6.646;2023-04-25T12:36:00;11.00;90.10
59146;DHT22;44928;53.074;6.646;2023-04-25T12:38:31;10.70;92.90
59146;DHT22;44928;53.074;6.646;2023-04-25T12:41:01;10.60;96.20
59146;DHT22;44928;53.074;6.646;2023-04-25T12:43:27;10.40;96.50
59146;DHT22;44928;53.074;6.646;2023-04-25T12:45:54;10.40;95.10
59146;DHT22;44928;53.074;6.646;2023-04-25T12:48:21;10.20;96.40
59146;DHT22;44928;53.074;6.646;2023-04-25T12:50:47;10.20;97.60
59146;DHT22;44928;53.074;6.646;2023-04-25T12:53:23;10.10;94.00
59146;DHT22;44928;53.074;6.646;2023-04-25T12:55:50;10.00;92.40
59146;DHT22;44928;53.074;6.646;2023-04-25T12:58:17;10.00;91.80
59146;DHT22;44928;53.074;6.646;2023-04-25T13:00:44;9.90;94.80
59146;DHT22;44928;53.074;6.646;2023-04-25T13:03:10;9.90;92.20
59146;DHT22;44928;53.074;6.646;2023-04-25T13:05:37;9.80;92.70
59146;DHT22;44928;53.074;6.646;2023-04-25T13:08:03;9.80;93.00
59146;DHT22;44928;53.074;6.646;2023-04-25T13:10:29;9.90;95.80
59146;DHT22;44928;53.074;6.646;2023-04-25T13:12:55;10.00;90.50
59146;DHT22;44928;53.074;6.646;2023-04-25T13:15:21;10.00;82.20
59146;DHT22;44928;53.074;6.646;2023-04-25T13:17:47;9.90;79.70
59146;DHT22;44928;53.074;6.646;2023-04-25T13:20:13;9.70;86.40
59146;DHT22;44928;53.074;6.646;2023-04-25T13:22:40;9.80;87.50
59146;DHT22;44928;53.074;6.646;2023-04-25T13:25:07;10.00;88.50
59146;DHT22;44928;53.074;6.646;2023-04-25T13:27:34;10.30;88.60
59146;DHT22;44928;53.074;6.646;2023-04-25T13:30:03;10.40;91.20
59146;DHT22;44928;53.074;6.646;2023-04-25T13:32:34;10.30;91.40
59146;DHT22;44928;53.074;6.646;2023-04-25T13:35:02;10.30;92.60
59146;DHT22;44928;53.074;6.646;2023-04-25T13:37:28;10.40;95.60
59146;DHT22;44928;53.074;6.646;2023-04-25T13:39:55;10.50;97.80
59146;DHT22;44928;53.074;6.646;2023-04-25T13:42:22;10.60;98.40
59146;DHT22;44928;53.074;6.646;2023-04-25T13:44:48;10.60;98.50
59146;DHT22;44928;53.074;6.646;2023-04-25T13:47:14;10.50;99.80
59146;DHT22;44928;53.074;6.646;2023-04-25T13:49:40;10.60;99.50
59146;DHT22;44928;53.074;6.646;2023-04-25T13:52:06;10.80;99.90
59146;DHT22;44928;53.074;6.646;2023-04-25T13:54:31;11.10;98.10
59146;DHT22;44928;53.074;6.646;2023-04-25T13:56:57;11.10;94.40
59146;DHT22;44928;53.074;6.646;2023-04-25T13:59:24;11.00;94.70
59146;DHT22;44928;53.074;6.646;2023-04-25T14:01:51;10.80;95.80
59146;DHT22;44928;53.074;6.646;2023-04-25T14:04:17;10.70;92.80
59146;DHT22;44928;53.074;6.646;2023-04-25T14:06:43;10.50;86.10
59146;DHT22;44928;53.074;6.646;2023-04-25T14:09:09;10.20;75.90
59146;DHT22;44928;53.074;6.646;2023-04-25T14:11:39;10.00;79.70
59146;DHT22;44928;53.074;6.646;2023-04-25T14:14:05;9.80;83.90
59146;DHT22;44928;53.074;6.646;2023-04-25T14:16:31;9.90;82.40
59146;DHT22;44928;53.074;6.646;2023-04-25T14:19:00;9.80;83.20
59146;DHT22;44928;53.074;6.646;2023-04-25T14:21:27;9.70;92.30
59146;DHT22;44928;53.074;6.646;2023-04-25T14:23:54;9.70;96.70
59146;DHT22;44928;53.074;6.646;2023-04-25T14:26:20;9.80;97.20
59146;DHT22;44928;53.074;6.646;2023-04-25T14:28:45;9.80;94.90
59146;DHT22;44928;53.074;6.646;2023-04-25T14:31:11;9.90;94.40
59146;DHT22;44928;53.074;6.646;2023-04-25T14:33:37;9.90;96.10
59146;DHT22;44928;53.074;6.646;2023-04-25T14:36:07;10.10;96.20
59146;DHT22;44928;53.074;6.646;2023-04-25T14:38:33;10.30;93.80
59146;DHT22;44928;53.074;6.646;2023-04-25T14:40:58;10.40;92.30
59146;DHT22;44928;53.074;6.646;2023-04-25T14:43:24;10.20;95.80
59146;DHT22;44928;53.074;6.646;2023-04-25T14:45:50;10.00;96.90
59146;DHT22;44928;53.074;6.646;2023-04-25T14:48:17;10.00;98.80
59146;DHT22;44928;53.074;6.646;2023-04-25T14:50:45;10.00;97.70
59146;DHT22;44928;53.074;6.646;2023-04-25T14:53:11;9.90;95.80
59146;DHT22;44928;53.074;6.646;2023-04-25T14:55:37;10.10;96.50
59146;DHT22;44928;53.074;6.646;2023-04-25T14:58:03;10.30;95.40
59146;DHT22;44928;53.074;6.646;2023-04-25T15:00:29;10.40;93.90
59146;DHT22;44928;53.074;6.646;2023-04-25T15:02:57;10.50;92.00
59146;DHT22;44928;53.074;6.646;2023-04-25T15:05:23;10.60;91.60
59146;DHT22;44928;53.074;6.646;2023-04-25T15:07:49;10.80;93.50
59146;DHT22;44928;53.074;6.646;2023-04-25T15:10:16;10.90;91.30
59146;DHT22;44928;53.074;6.646;2023-04-25T15:12:45;10.80;86.90
59146;DHT22;44928;53.074;6.646;2023-04-25T15:15:11;10.60;90.40
59146;DHT22;44928;53.074;6.646;2023-04-25T15:17:38;10.30;95.20
59146;DHT22;44928;53.074;6.646;2023-04-25T15:20:10;10.00;99.60
59146;DHT22;44928;53.074;6.646;2023-04-25T15:22:39;9.70;99.90
59146;DHT22;44928;53.074;6.646;2023-04-25T15:25:05;9.40;99.90
59146;DHT22;44928;53.074;6.646;2023-04-25T15:27:33;9.20;99.90
59146;DHT22;44928;53.074;6.646;2023-04-25T15:30:05;9.10;99.90
59146;DHT22;44928;53.074;6.646;2023-04-25T15:32:32;9.00;99.90
59146;DHT22;44928;53.074;6.646;2023-04-25T15:34:58;8.90;99.90
59146;DHT22;44928;53.074;6.646;2023-04-25T15:37:24;8.90;99.90
59146;DHT22;44928;53.074;6.646;2023-04-25T15:40:07;8.80;99.90
59146;DHT22;44928;53.074;6.646;2023-04-25T15:42:42;8.90;99.90
59146;DHT22;44928;53.074;6.646;2023-04-25T15:45:09;8.80;99.90
59146;DHT22;44928;53.074;6.646;2023-04-25T15:47:36;8.80;99.90
59146;DHT22;44928;53.074;6.646;2023-04-25T15:50:03;8.80;99.90
59146;DHT22;44928;53.074;6.646;2023-04-25T15:52:34;8.70;99.90
59146;DHT22;44928;53.074;6.646;2023-04-25T15:55:00;8.70;99.90